createdAt,value
2023-02-07T00:09:30.694Z,92
2023-02-07T00:19:32.546Z,92
2023-02-07T00:39:35.646Z,92
2023-02-07T00:49:36.607Z,92
2023-02-07T00:59:38.069Z,91
2023-02-07T01:19:41.302Z,91
2023-02-07T01:29:42.532Z,91
2023-02-07T01:39:44.537Z,91
2023-02-07T01:49:46.455Z,91
2023-02-07T01:59:47.949Z,91
2023-02-07T02:09:49.048Z,91
2023-02-07T02:19:51.060Z,91
2023-02-07T02:29:53.142Z,91
2023-02-07T02:39:54.295Z,91
2023-02-07T02:49:55.990Z,92
2023-02-07T02:59:57.798Z,92
2023-02-07T03:09:59.219Z,92
2023-02-07T03:20:01.089Z,92
2023-02-07T03:30:02.891Z,92
2023-02-07T03:40:04.138Z,92
2023-02-07T03:50:05.231Z,92
2023-02-07T04:00:06.609Z,92
2023-02-07T04:10:08.093Z,92
2023-02-07T04:20:09.360Z,92
2023-02-07T04:30:10.663Z,92
2023-02-07T04:40:11.709Z,92
2023-02-07T04:50:13.603Z,92
2023-02-07T05:00:15.358Z,92
2023-02-07T05:10:17.170Z,92
2023-02-07T05:20:18.923Z,92
2023-02-07T05:30:20.899Z,92
2023-02-07T05:40:22.212Z,92
2023-02-07T05:50:23.508Z,92
2023-02-07T06:00:24.860Z,92
2023-02-07T06:10:26.741Z,93
2023-02-07T06:20:28.329Z,92
2023-02-07T06:30:29.490Z,92
2023-02-07T06:40:30.970Z,92
2023-02-07T06:50:32.179Z,92
2023-02-07T07:00:33.453Z,92
2023-02-07T07:10:34.648Z,92
2023-02-07T07:30:37.393Z,93
2023-02-07T07:40:39.520Z,93
2023-02-07T07:50:40.943Z,93
2023-02-07T08:00:42.040Z,93
2023-02-07T08:10:43.059Z,93
2023-02-07T08:20:45.032Z,93
2023-02-07T08:40:47.487Z,92
2023-02-07T09:00:51.218Z,91
2023-02-07T09:43:38.279Z,89
2023-02-07T09:51:07.450Z,88
2023-02-07T10:11:10.156Z,86
2023-02-07T10:41:14.853Z,81
2023-02-07T12:41:33.637Z,65
2023-02-07T12:51:35.247Z,66
2023-02-07T13:11:38.593Z,62
2023-02-07T13:21:40.078Z,61
2023-02-07T13:31:41.989Z,64
2023-02-07T13:41:43.249Z,65
2023-02-07T13:51:45.142Z,63
2023-02-07T14:01:46.280Z,61
2023-02-07T14:11:48.181Z,59
2023-02-07T14:31:52.003Z,59
2023-02-07T14:51:55.315Z,59
2023-02-07T15:01:56.469Z,61
2023-02-07T15:12:05.792Z,60
2023-02-07T15:21:59.320Z,57
2023-02-07T15:32:00.688Z,56
2023-02-07T15:42:01.965Z,56
2023-02-07T15:52:03.691Z,57
2023-02-07T16:02:05.455Z,58
2023-02-07T16:12:07.406Z,59
2023-02-07T16:22:09.096Z,61
2023-02-07T16:42:12.327Z,63
2023-02-07T17:12:17.600Z,67
2023-02-07T17:22:19.393Z,69
2023-02-07T17:52:23.839Z,71
2023-02-07T18:02:25.810Z,72
2023-02-07T18:12:26.988Z,73
2023-02-07T18:22:28.105Z,74
2023-02-07T18:32:29.553Z,75
2023-02-07T18:52:32.026Z,76
2023-02-07T19:02:33.879Z,76
2023-02-07T19:12:35.552Z,77
2023-02-07T19:22:37.566Z,77
2023-02-07T19:32:38.379Z,78
2023-02-07T19:42:39.461Z,79
2023-02-07T20:02:42.699Z,80
2023-02-07T20:12:44.698Z,80
2023-02-07T20:22:46.162Z,80
2023-02-07T20:32:48.480Z,80
2023-02-07T20:42:49.377Z,80
2023-02-07T20:52:50.689Z,81
2023-02-07T21:12:53.484Z,81
2023-02-07T21:22:55.489Z,82
2023-02-07T21:42:58.846Z,83
2023-02-07T21:53:00.509Z,83
2023-02-07T22:03:02.130Z,84
2023-02-07T22:13:03.321Z,83
2023-02-07T22:23:05.113Z,83
2023-02-07T22:33:06.524Z,84
2023-02-07T22:43:08.180Z,84
2023-02-07T22:53:09.974Z,84
2023-02-07T23:03:11.416Z,85
2023-02-07T23:13:13.023Z,85
2023-02-07T23:23:14.900Z,85
2023-02-07T23:33:16.436Z,85
2023-02-07T23:43:18.063Z,85
